createdAt,value
2018-03-01T00:00:51.217Z,72.70
2018-03-01T00:03:25.491Z,72.30
2018-03-01T00:05:59.046Z,72.60
2018-03-01T00:08:32.722Z,73.30
2018-03-01T00:11:06.274Z,73.30
2018-03-01T00:13:39.986Z,72.70
2018-03-01T00:16:13.593Z,73.20
2018-03-01T00:18:47.267Z,73.80
2018-03-01T00:21:20.886Z,72.70
2018-03-01T00:23:54.403Z,72.70
2018-03-01T00:26:28.817Z,73.30
2018-03-01T00:29:02.400Z,73.30
2018-03-01T00:31:36.017Z,74.50
2018-03-01T00:34:10.436Z,74.30
2018-03-01T00:36:44.805Z,74.20
2018-03-01T00:39:18.347Z,74.20
2018-03-01T00:41:51.970Z,73.90
2018-03-01T00:44:25.687Z,74.50
2018-03-01T00:46:59.586Z,74.60
2018-03-01T00:49:33.142Z,75.80
2018-03-01T00:52:06.770Z,75.50
2018-03-01T00:54:40.277Z,75.50
2018-03-01T00:57:14.007Z,75.00
2018-03-01T00:59:47.725Z,75.00
2018-03-01T01:02:21.290Z,75.40
2018-03-01T01:04:55.807Z,76.50
2018-03-01T01:07:29.374Z,76.40
2018-03-01T01:10:03.039Z,77.70
2018-03-01T01:12:36.675Z,77.20
2018-03-01T01:15:10.285Z,76.20
2018-03-01T01:17:44.065Z,76.20
2018-03-01T01:20:17.791Z,76.60
2018-03-01T01:22:51.399Z,76.30
2018-03-01T01:25:25.133Z,76.00
2018-03-01T01:27:58.946Z,75.40
2018-03-01T01:30:32.655Z,75.10
2018-03-01T01:33:06.227Z,75.40
2018-03-01T01:35:39.819Z,75.10
2018-03-01T01:38:13.372Z,76.00
2018-03-01T01:40:48.591Z,75.70
2018-03-01T01:43:22.266Z,75.70
2018-03-01T01:45:55.867Z,76.60
2018-03-01T01:48:29.527Z,77.10
2018-03-01T01:51:03.812Z,77.40
2018-03-01T01:53:37.481Z,77.30
2018-03-01T01:56:11.054Z,77.20
2018-03-01T01:58:44.692Z,76.80
2018-03-01T02:01:19.203Z,78.90
2018-03-01T02:03:54.316Z,78.40
2018-03-01T02:06:28.013Z,78.40
2018-03-01T02:09:01.740Z,78.30
2018-03-01T02:11:36.068Z,79.60
2018-03-01T02:14:09.606Z,79.60
2018-03-01T02:16:43.183Z,80.00
2018-03-01T02:19:16.887Z,79.70
2018-03-01T02:21:51.283Z,80.40
2018-03-01T02:24:24.902Z,80.30
2018-03-01T02:26:59.318Z,78.90
2018-03-01T02:29:32.945Z,78.90
2018-03-01T02:32:06.615Z,79.80
2018-03-01T02:34:40.216Z,80.00
2018-03-01T02:37:13.717Z,81.50
2018-03-01T02:39:48.133Z,82.50
2018-03-01T02:42:22.447Z,83.00
2018-03-01T02:44:56.098Z,83.00
2018-03-01T02:47:29.760Z,83.80
2018-03-01T02:50:03.356Z,83.40
2018-03-01T02:52:37.045Z,82.70
2018-03-01T02:55:10.554Z,82.20
2018-03-01T02:57:44.051Z,81.70
2018-03-01T03:00:17.703Z,80.40
2018-03-01T03:02:51.289Z,80.40
2018-03-01T03:05:24.934Z,80.80
2018-03-01T03:07:58.465Z,80.20
2018-03-01T03:10:32.199Z,78.90
2018-03-01T03:13:05.833Z,79.20
2018-03-01T03:15:39.378Z,78.80
2018-03-01T03:18:12.971Z,79.30
2018-03-01T03:20:46.658Z,76.70
2018-03-01T03:23:20.987Z,77.30
2018-03-01T03:25:55.303Z,77.40
2018-03-01T03:28:29.719Z,76.80
2018-03-01T03:31:03.450Z,76.80
2018-03-01T03:33:37.058Z,76.60
2018-03-01T03:36:10.629Z,77.30
2018-03-01T03:38:44.961Z,80.10
2018-03-01T03:41:18.653Z,80.00
2018-03-01T03:43:52.965Z,79.40
2018-03-01T03:46:26.478Z,79.40
2018-03-01T03:49:00.087Z,78.40
2018-03-01T03:51:33.670Z,77.30
2018-03-01T03:54:07.209Z,77.70
2018-03-01T03:56:40.868Z,77.20
2018-03-01T03:59:14.462Z,77.70
2018-03-01T04:01:48.780Z,78.90
2018-03-01T04:04:22.528Z,78.90
2018-03-01T04:06:56.222Z,79.80
2018-03-01T04:09:29.800Z,80.40
2018-03-01T04:12:04.316Z,78.80
2018-03-01T04:14:37.968Z,78.60
2018-03-01T04:17:11.545Z,79.90
2018-03-01T04:19:45.155Z,79.70
2018-03-01T04:22:19.566Z,79.00
2018-03-01T04:24:53.238Z,79.00
2018-03-01T04:27:27.658Z,79.40
2018-03-01T04:30:02.001Z,79.70
2018-03-01T04:32:35.567Z,79.70
2018-03-01T04:35:10.031Z,78.40
2018-03-01T04:37:43.568Z,78.30
2018-03-01T04:40:17.125Z,78.00
2018-03-01T04:42:50.794Z,77.40
2018-03-01T04:45:24.541Z,77.40
2018-03-01T04:47:58.242Z,75.70
2018-03-01T04:50:32.519Z,76.90
2018-03-01T04:53:06.141Z,76.80
2018-03-01T04:55:39.886Z,78.40
2018-03-01T04:58:13.407Z,78.20
2018-03-01T05:00:46.904Z,78.20
2018-03-01T05:03:20.521Z,77.80
2018-03-01T05:05:55.054Z,76.10
2018-03-01T05:08:29.578Z,76.10
2018-03-01T05:11:04.086Z,77.30
2018-03-01T05:13:37.743Z,77.30
2018-03-01T05:16:12.022Z,79.40
2018-03-01T05:18:46.441Z,79.10
2018-03-01T05:21:20.054Z,79.00
2018-03-01T05:23:53.709Z,79.50
2018-03-01T05:26:27.377Z,79.30
2018-03-01T05:29:00.970Z,79.50
2018-03-01T05:31:34.680Z,78.80
2018-03-01T05:34:08.443Z,78.30
2018-03-01T05:36:42.200Z,78.40
2018-03-01T05:39:15.883Z,79.30
2018-03-01T05:41:49.441Z,78.90
2018-03-01T05:44:23.160Z,78.00
2018-03-01T05:46:57.574Z,79.10
2018-03-01T05:49:31.330Z,79.10
2018-03-01T05:52:04.898Z,79.60
2018-03-01T05:54:38.482Z,78.50
2018-03-01T05:57:12.130Z,79.00
2018-03-01T05:59:45.810Z,78.30
2018-03-01T06:02:19.370Z,77.40
2018-03-01T06:04:52.975Z,77.40
2018-03-01T06:07:26.577Z,78.00
2018-03-01T06:10:00.196Z,78.20
2018-03-01T06:12:33.838Z,77.90
2018-03-01T06:15:09.054Z,80.50
2018-03-01T06:17:43.561Z,80.20
2018-03-01T06:20:17.946Z,80.70
2018-03-01T06:22:51.638Z,80.10
2018-03-01T06:25:25.206Z,80.00
2018-03-01T06:27:58.943Z,80.20
2018-03-01T06:30:32.601Z,79.90
2018-03-01T06:33:07.096Z,77.80
2018-03-01T06:35:40.701Z,77.80
2018-03-01T06:38:14.409Z,76.80
2018-03-01T06:40:48.034Z,76.50
2018-03-01T06:43:21.574Z,75.10
2018-03-01T06:45:55.094Z,76.40
2018-03-01T06:48:28.804Z,76.80
2018-03-01T06:51:02.420Z,78.30
2018-03-01T06:53:36.927Z,77.00
2018-03-01T06:56:10.530Z,77.00
2018-03-01T06:58:44.964Z,76.10
2018-03-01T07:01:18.534Z,76.10
2018-03-01T07:03:52.226Z,75.40
2018-03-01T07:06:25.903Z,75.50
2018-03-01T07:09:00.281Z,75.60
2018-03-01T07:11:34.642Z,73.70
2018-03-01T07:14:08.287Z,73.70
2018-03-01T07:16:41.841Z,73.50
2018-03-01T07:19:16.221Z,74.20
2018-03-01T07:21:49.895Z,74.20
2018-03-01T07:24:23.674Z,74.40
2018-03-01T07:26:57.257Z,76.00
2018-03-01T07:29:30.960Z,74.80
2018-03-01T07:32:04.511Z,73.70
2018-03-01T07:34:38.050Z,71.60
2018-03-01T07:37:11.647Z,71.60
2018-03-01T07:39:45.369Z,71.00
2018-03-01T07:42:19.858Z,73.10
2018-03-01T07:44:53.464Z,73.10
2018-03-01T07:47:27.201Z,72.90
2018-03-01T07:50:01.577Z,72.20
2018-03-01T07:52:35.155Z,72.20
2018-03-01T07:55:08.819Z,71.60
2018-03-01T07:57:42.304Z,70.00
2018-03-01T08:00:15.890Z,69.70
2018-03-01T08:02:49.590Z,69.00
2018-03-01T08:05:23.288Z,68.70
2018-03-01T08:07:56.874Z,68.10
2018-03-01T08:10:30.402Z,68.40
2018-03-01T08:13:03.980Z,69.30
2018-03-01T08:15:37.549Z,70.90
2018-03-01T08:18:11.270Z,71.20
2018-03-01T08:20:44.987Z,69.30
2018-03-01T08:23:18.525Z,68.70
2018-03-01T08:25:52.099Z,69.00
2018-03-01T08:28:25.835Z,67.10
2018-03-01T08:30:59.387Z,68.20
2018-03-01T08:33:33.140Z,69.60
2018-03-01T08:36:06.715Z,68.20
2018-03-01T08:38:40.398Z,66.80
2018-03-01T08:41:14.118Z,66.20
2018-03-01T08:43:47.780Z,66.10
2018-03-01T08:46:21.350Z,66.00
2018-03-01T08:48:54.915Z,66.70
2018-03-01T08:51:28.511Z,66.50
2018-03-01T08:54:02.023Z,66.40
2018-03-01T08:56:36.429Z,65.80
2018-03-01T08:59:09.933Z,65.70
2018-03-01T09:01:44.244Z,65.80
2018-03-01T09:04:18.754Z,65.80
2018-03-01T09:06:52.282Z,65.70
2018-03-01T09:09:25.857Z,65.10
2018-03-01T09:11:59.456Z,64.50
2018-03-01T09:14:33.034Z,63.40
2018-03-01T09:17:06.770Z,63.10
2018-03-01T09:19:40.363Z,62.90
2018-03-01T09:22:14.074Z,62.00
2018-03-01T09:24:47.765Z,61.00
2018-03-01T09:27:21.318Z,61.10
2018-03-01T09:29:54.866Z,59.90
2018-03-01T09:32:29.242Z,60.50
2018-03-01T09:35:02.785Z,60.30
2018-03-01T09:37:36.392Z,60.40
2018-03-01T09:40:10.068Z,59.90
2018-03-01T09:42:43.701Z,59.40
2018-03-01T09:45:17.313Z,59.00
2018-03-01T09:47:50.997Z,59.20
2018-03-01T09:50:24.733Z,59.80
2018-03-01T09:52:58.247Z,59.20
2018-03-01T09:55:32.615Z,59.80
2018-03-01T09:58:06.221Z,59.70
2018-03-01T10:00:40.648Z,59.80
2018-03-01T10:03:14.193Z,59.80
2018-03-01T10:05:47.875Z,58.80
2018-03-01T10:08:21.438Z,58.50
2018-03-01T10:10:55.150Z,59.20
2018-03-01T10:13:28.809Z,59.00
2018-03-01T10:16:02.474Z,58.50
2018-03-01T10:18:36.196Z,58.30
2018-03-01T10:21:09.757Z,57.80
2018-03-01T10:23:43.333Z,58.20
2018-03-01T10:26:16.952Z,58.60
2018-03-01T10:28:50.593Z,58.40
2018-03-01T10:31:24.267Z,58.50
2018-03-01T10:33:58.010Z,58.10
2018-03-01T10:36:32.488Z,58.40
2018-03-01T10:39:06.822Z,58.40
2018-03-01T10:41:40.553Z,58.40
2018-03-01T10:44:14.067Z,58.50
2018-03-01T10:46:47.593Z,58.20
2018-03-01T10:49:21.250Z,58.30
2018-03-01T10:51:54.846Z,58.10
2018-03-01T10:54:28.483Z,58.50
2018-03-01T10:57:02.210Z,58.80
2018-03-01T10:59:35.928Z,59.60
2018-03-01T11:02:09.658Z,58.60
2018-03-01T11:04:44.042Z,57.60
2018-03-01T11:07:18.368Z,57.70
2018-03-01T11:09:51.967Z,57.70
2018-03-01T11:12:25.675Z,57.70
2018-03-01T11:14:59.280Z,57.60
2018-03-01T11:17:32.964Z,57.80
2018-03-01T11:20:06.499Z,57.30
2018-03-01T11:22:40.052Z,57.30
2018-03-01T11:25:13.680Z,57.20
2018-03-01T11:27:47.224Z,57.20
2018-03-01T11:30:20.875Z,56.90
2018-03-01T11:32:54.470Z,57.30
2018-03-01T11:35:28.148Z,56.80
2018-03-01T11:38:01.676Z,56.90
2018-03-01T11:40:35.262Z,56.90
2018-03-01T11:43:08.779Z,57.40
2018-03-01T11:45:42.405Z,57.60
2018-03-01T11:48:15.951Z,57.90
2018-03-01T11:50:49.588Z,57.40
2018-03-01T11:53:23.884Z,57.00
2018-03-01T11:55:57.482Z,57.00
2018-03-01T11:58:31.122Z,56.80
2018-03-01T12:01:04.710Z,57.80
2018-03-01T12:03:38.403Z,57.30
2018-03-01T12:06:11.934Z,57.00
2018-03-01T12:08:45.569Z,56.60
2018-03-01T12:11:19.137Z,56.70
2018-03-01T12:13:52.681Z,57.10
2018-03-01T12:16:27.111Z,57.40
2018-03-01T12:19:00.710Z,57.40
2018-03-01T12:21:35.151Z,56.40
2018-03-01T12:24:08.743Z,56.40
2018-03-01T12:26:42.246Z,56.00
2018-03-01T12:29:15.914Z,55.50
2018-03-01T12:31:49.485Z,55.50
2018-03-01T12:34:23.133Z,56.20
2018-03-01T12:36:56.863Z,55.50
2018-03-01T12:39:30.416Z,55.60
2018-03-01T12:42:04.189Z,55.30
2018-03-01T12:44:38.484Z,55.30
2018-03-01T12:47:12.001Z,55.20
2018-03-01T12:49:46.382Z,55.40
2018-03-01T12:52:19.993Z,55.30
2018-03-01T12:54:53.608Z,55.50
2018-03-01T12:57:27.290Z,55.40
2018-03-01T13:00:00.854Z,55.60
2018-03-01T13:02:34.459Z,55.70
2018-03-01T13:05:08.234Z,54.80
2018-03-01T13:07:41.793Z,55.30
2018-03-01T13:10:16.320Z,55.10
2018-03-01T13:12:50.021Z,55.10
2018-03-01T13:15:24.469Z,55.20
2018-03-01T13:17:58.058Z,55.20
2018-03-01T13:20:31.770Z,55.30
2018-03-01T13:23:05.449Z,55.20
2018-03-01T13:25:38.989Z,55.40
2018-03-01T13:28:12.616Z,56.00
2018-03-01T13:30:47.757Z,56.20
2018-03-01T13:33:31.488Z,56.70
2018-03-01T13:36:05.205Z,56.30
2018-03-01T13:38:39.651Z,55.80
2018-03-01T13:41:14.154Z,56.80
2018-03-01T13:43:47.824Z,56.20
2018-03-01T13:59:41.426Z,55.10
2018-03-01T14:02:15.024Z,55.00
2018-03-01T14:04:48.572Z,55.20
2018-03-01T14:21:01.979Z,55.30
2018-03-01T14:23:39.498Z,55.60
2018-03-01T14:26:18.028Z,55.70
2018-03-01T14:29:00.207Z,55.70
2018-03-01T14:31:34.678Z,56.00
2018-03-01T14:34:08.415Z,55.90
2018-03-01T14:36:41.977Z,55.80
2018-03-01T14:39:15.683Z,55.50
2018-03-01T14:41:49.282Z,54.70
2018-03-01T14:44:23.727Z,54.80
2018-03-01T14:46:57.218Z,54.80
2018-03-01T14:49:30.817Z,54.30
2018-03-01T14:52:04.393Z,54.10
2018-03-01T14:54:38.844Z,53.90
2018-03-01T14:57:12.351Z,53.80
2018-03-01T14:59:45.933Z,53.80
2018-03-01T15:02:19.524Z,54.00
2018-03-01T15:04:53.266Z,54.30
2018-03-01T15:07:26.856Z,54.30
2018-03-01T15:10:00.417Z,54.00
2018-03-01T15:12:34.051Z,54.20
2018-03-01T15:15:08.404Z,53.90
2018-03-01T15:17:42.779Z,53.80
2018-03-01T15:20:17.054Z,53.90
2018-03-01T15:22:50.572Z,53.90
2018-03-01T15:25:24.099Z,53.90
2018-03-01T15:27:58.494Z,54.10
2018-03-01T15:30:32.886Z,53.80
2018-03-01T15:33:06.423Z,53.70
2018-03-01T15:35:40.164Z,53.40
2018-03-01T15:38:13.741Z,53.20
2018-03-01T15:40:47.311Z,52.90
2018-03-01T15:43:20.843Z,52.50
2018-03-01T15:45:54.439Z,52.60
2018-03-01T15:48:28.014Z,52.80
2018-03-01T15:51:01.501Z,52.80
2018-03-01T15:53:35.266Z,52.60
2018-03-01T15:56:08.825Z,52.40
2018-03-01T15:58:42.534Z,52.60
2018-03-01T16:01:16.118Z,53.00
2018-03-01T16:03:49.833Z,52.90
2018-03-01T16:06:23.426Z,52.70
2018-03-01T16:08:58.235Z,52.60
2018-03-01T16:11:31.990Z,52.50
2018-03-01T16:14:05.561Z,52.90
2018-03-01T16:16:39.103Z,52.70
2018-03-01T16:19:12.680Z,53.00
2018-03-01T16:21:46.264Z,53.50
2018-03-01T16:24:20.590Z,53.80
2018-03-01T16:26:54.370Z,53.80
2018-03-01T16:29:28.078Z,53.60
2018-03-01T16:32:01.717Z,53.70
2018-03-01T16:34:35.301Z,53.70
2018-03-01T16:37:08.993Z,53.70
2018-03-01T16:39:42.622Z,54.00
2018-03-01T16:42:16.190Z,54.20
2018-03-01T16:44:54.435Z,54.90
2018-03-01T16:47:27.994Z,54.90
2018-03-01T16:50:01.783Z,55.30
2018-03-01T16:52:35.343Z,55.20
2018-03-01T16:55:09.070Z,55.30
2018-03-01T16:57:42.736Z,55.50
2018-03-01T17:00:16.423Z,55.40
2018-03-01T17:02:50.127Z,55.70
2018-03-01T17:05:24.466Z,56.00
2018-03-01T17:07:58.040Z,55.90
2018-03-01T17:10:31.584Z,55.90
2018-03-01T17:13:05.113Z,56.20
2018-03-01T17:15:38.759Z,56.20
2018-03-01T17:18:12.462Z,56.20
2018-03-01T17:20:46.037Z,56.50
2018-03-01T17:23:19.570Z,56.70
2018-03-01T17:25:53.131Z,56.90
2018-03-01T17:28:26.687Z,57.10
2018-03-01T17:31:00.298Z,57.40
2018-03-01T17:33:33.966Z,57.40
2018-03-01T17:36:07.680Z,57.10
2018-03-01T17:38:41.361Z,57.00
2018-03-01T17:41:15.072Z,56.90
2018-03-01T17:43:48.841Z,57.10
2018-03-01T17:46:22.614Z,57.60
2018-03-01T17:48:56.263Z,57.80
2018-03-01T17:51:29.825Z,57.90
2018-03-01T17:54:03.528Z,58.00
2018-03-01T17:56:37.901Z,58.30
2018-03-01T17:59:11.518Z,58.30
2018-03-01T18:01:45.203Z,58.30
2018-03-01T18:04:18.770Z,58.40
2018-03-01T18:06:52.355Z,58.40
2018-03-01T18:09:26.734Z,58.50
2018-03-01T18:12:00.341Z,58.40
2018-03-01T18:14:34.081Z,58.60
2018-03-01T18:17:07.630Z,58.80
2018-03-01T18:19:41.345Z,59.00
2018-03-01T18:22:14.938Z,58.80
2018-03-01T18:24:48.637Z,58.80
2018-03-01T18:27:22.394Z,58.80
2018-03-01T18:29:56.851Z,59.20
2018-03-01T18:32:30.465Z,59.10
2018-03-01T18:35:04.273Z,59.00
2018-03-01T18:37:37.853Z,59.20
2018-03-01T18:40:12.303Z,59.50
2018-03-01T18:42:45.912Z,59.50
2018-03-01T18:45:19.526Z,59.70
2018-03-01T18:47:53.251Z,59.90
2018-03-01T18:50:26.931Z,60.10
2018-03-01T18:53:01.220Z,60.20
2018-03-01T18:55:34.756Z,60.20
2018-03-01T18:58:09.156Z,61.00
2018-03-01T19:00:42.993Z,60.30
2018-03-01T19:03:18.288Z,60.70
2018-03-01T19:05:51.878Z,60.70
2018-03-01T19:08:26.246Z,60.70
2018-03-01T19:10:59.740Z,60.70
2018-03-01T19:13:33.424Z,60.70
2018-03-01T19:16:07.137Z,60.60
2018-03-01T19:18:40.722Z,61.00
2018-03-01T19:21:15.028Z,61.70
2018-03-01T19:23:48.757Z,61.70
2018-03-01T19:26:22.290Z,62.30
2018-03-01T19:28:55.963Z,62.70
2018-03-01T19:31:29.526Z,62.80
2018-03-01T19:34:03.132Z,63.10
2018-03-01T19:36:36.802Z,63.50
2018-03-01T19:39:10.354Z,63.50
2018-03-01T19:41:43.910Z,63.20
2018-03-01T19:44:17.663Z,63.00
2018-03-01T19:46:51.493Z,63.20
2018-03-01T19:49:25.180Z,63.40
2018-03-01T19:51:58.848Z,63.80
2018-03-01T19:54:32.374Z,64.20
2018-03-01T19:57:06.063Z,64.40
2018-03-01T19:59:39.557Z,64.10
2018-03-01T20:02:13.875Z,63.90
2018-03-01T20:04:47.658Z,63.80
2018-03-01T20:07:21.304Z,64.10
2018-03-01T20:09:54.870Z,64.50
2018-03-01T20:12:29.477Z,64.80
2018-03-01T20:15:03.237Z,64.70
2018-03-01T20:17:36.774Z,64.60
2018-03-01T20:20:10.536Z,64.30
2018-03-01T20:22:44.211Z,64.70
2018-03-01T20:25:17.842Z,65.10
2018-03-01T20:27:51.485Z,65.20
2018-03-01T20:30:25.228Z,66.00
2018-03-01T20:32:58.791Z,65.90
2018-03-01T20:35:32.359Z,66.00
2018-03-01T20:38:06.234Z,66.50
2018-03-01T20:40:40.659Z,67.20
2018-03-01T20:43:14.349Z,67.10
2018-03-01T20:45:48.174Z,67.30
2018-03-01T20:48:21.743Z,67.80
2018-03-01T20:50:55.438Z,68.10
2018-03-01T20:53:29.073Z,68.10
2018-03-01T20:56:02.772Z,68.30
2018-03-01T20:58:37.225Z,68.50
2018-03-01T21:01:11.602Z,68.50
2018-03-01T21:03:45.110Z,68.40
2018-03-01T21:06:18.736Z,67.80
2018-03-01T21:08:52.295Z,67.60
2018-03-01T21:11:25.885Z,68.20
2018-03-01T21:14:00.199Z,68.80
2018-03-01T21:16:33.877Z,68.70
2018-03-01T21:19:07.625Z,68.70
2018-03-01T21:21:41.235Z,68.60
2018-03-01T21:24:15.742Z,68.90
2018-03-01T21:26:49.362Z,68.90
2018-03-01T21:29:22.938Z,69.50
2018-03-01T21:31:57.134Z,69.10
2018-03-01T21:34:30.897Z,69.20
2018-03-01T21:37:04.586Z,69.00
2018-03-01T21:39:38.161Z,69.20
2018-03-01T21:42:11.767Z,69.40
2018-03-01T21:44:46.366Z,70.70
2018-03-01T21:47:20.043Z,70.70
2018-03-01T21:49:53.617Z,70.70
2018-03-01T21:52:27.161Z,71.10
2018-03-01T21:55:00.805Z,71.30
2018-03-01T21:57:34.321Z,71.10
2018-03-01T22:00:07.997Z,71.00
2018-03-01T22:02:41.587Z,71.30
2018-03-01T22:05:15.264Z,71.60
2018-03-01T22:07:48.881Z,71.80
2018-03-01T22:10:22.535Z,72.00
2018-03-01T22:12:56.199Z,72.30
2018-03-01T22:15:29.814Z,72.50
2018-03-01T22:18:03.389Z,72.90
2018-03-01T22:20:37.296Z,73.50
2018-03-01T22:23:10.875Z,73.70
2018-03-01T22:25:44.639Z,73.80
2018-03-01T22:28:18.371Z,73.80
2018-03-01T22:30:52.034Z,73.60
2018-03-01T22:33:25.622Z,73.30
2018-03-01T22:36:00.144Z,72.80
2018-03-01T22:38:33.741Z,72.80
2018-03-01T22:41:07.351Z,72.90
2018-03-01T22:43:41.076Z,73.00
2018-03-01T22:46:14.817Z,73.20
2018-03-01T22:48:48.342Z,73.20
2018-03-01T22:51:22.101Z,73.20
2018-03-01T22:53:55.762Z,73.50
2018-03-01T22:56:29.329Z,74.30
2018-03-01T22:59:03.063Z,74.20
2018-03-01T23:01:36.608Z,74.30
2018-03-01T23:04:10.197Z,74.80
2018-03-01T23:06:43.736Z,75.40
2018-03-01T23:09:18.199Z,75.50
2018-03-01T23:11:51.927Z,75.40
2018-03-01T23:14:25.526Z,75.60
2018-03-01T23:16:59.077Z,75.60
2018-03-01T23:19:32.793Z,76.50
2018-03-01T23:22:06.321Z,76.90
2018-03-01T23:24:39.928Z,76.90
2018-03-01T23:27:13.502Z,77.90
2018-03-01T23:29:47.129Z,77.50
2018-03-01T23:32:20.714Z,77.40
2018-03-01T23:34:54.294Z,76.80
2018-03-01T23:37:28.071Z,76.60
2018-03-01T23:40:01.774Z,76.80
2018-03-01T23:42:36.217Z,76.40
2018-03-01T23:45:09.835Z,76.30
2018-03-01T23:47:43.438Z,77.40
2018-03-01T23:50:17.072Z,77.60
2018-03-01T23:52:50.603Z,77.60
2018-03-01T23:55:24.310Z,77.30
2018-03-01T23:57:58.658Z,78.50
